createdAt,value
2019-05-18T00:00:48.554Z,27.6
2019-05-18T00:01:49.857Z,28.7
2019-05-18T00:02:51.721Z,27.8
2019-05-18T00:03:53.589Z,27.8
2019-05-18T00:04:55.454Z,28.6
2019-05-18T00:05:57.073Z,28.2
2019-05-18T00:06:58.937Z,28
2019-05-18T00:08:00.805Z,28.3
2019-05-18T00:09:02.396Z,28.4
2019-05-18T00:10:03.983Z,28.5
2019-05-18T00:11:05.854Z,28.8
2019-05-18T00:12:07.726Z,28.1
2019-05-18T00:13:09.371Z,28.4
2019-05-18T00:14:11.235Z,29.3
2019-05-18T00:15:13.103Z,29.2
2019-05-18T00:16:14.965Z,28.6
2019-05-18T00:17:26.224Z,29.2
2019-05-18T00:18:28.091Z,27.9
2019-05-18T00:19:29.961Z,30
2019-05-18T00:20:31.832Z,28
2019-05-18T00:21:33.702Z,29.3
2019-05-18T00:22:35.563Z,28.7
2019-05-18T00:23:36.894Z,28.1
2019-05-18T00:24:38.767Z,28.5
2019-05-18T00:25:40.633Z,28.7
2019-05-18T00:26:42.502Z,28.3
2019-05-18T00:27:44.362Z,29
2019-05-18T00:28:46.377Z,28.8
2019-05-18T00:29:48.243Z,28.7
2019-05-18T00:30:50.111Z,28.7
2019-05-18T00:31:51.727Z,28.5
2019-05-18T00:32:53.594Z,28.8
2019-05-18T00:33:55.459Z,29.2
2019-05-18T00:34:57.327Z,29.5
2019-05-18T00:35:59.192Z,30.3
2019-05-18T00:37:00.782Z,30.2
2019-05-18T00:38:02.648Z,29.1
2019-05-18T00:39:04.513Z,29
2019-05-18T00:40:06.376Z,30.5
2019-05-18T00:41:07.965Z,29.9
2019-05-18T00:42:09.835Z,29
2019-05-18T00:43:11.426Z,29.9
2019-05-18T00:44:13.029Z,30.1
2019-05-18T00:45:14.906Z,28.5
2019-05-18T00:46:16.245Z,29.3
2019-05-18T00:47:17.557Z,29.7
2019-05-18T00:48:19.418Z,29.8
2019-05-18T00:49:21.284Z,30.9
2019-05-18T00:50:23.149Z,30.2
2019-05-18T00:51:25.014Z,29.8
2019-05-18T00:52:26.877Z,29.8
2019-05-18T00:53:28.741Z,29
2019-05-18T00:54:30.333Z,29.8
2019-05-18T00:55:31.918Z,30.2
2019-05-18T00:56:33.519Z,30.2
2019-05-18T00:57:35.383Z,30.3
2019-05-18T00:58:37.249Z,29.9
2019-05-18T00:59:39.114Z,30.2
2019-05-18T01:00:40.704Z,31.4
2019-05-18T01:01:42.581Z,30
2019-05-18T01:02:44.438Z,30.6
2019-05-18T01:03:46.300Z,29.3
2019-05-18T01:04:48.167Z,30.2
2019-05-18T01:05:50.046Z,30.8
2019-05-18T01:06:51.897Z,28.3
2019-05-18T01:07:53.809Z,30
2019-05-18T01:08:55.713Z,28.6
2019-05-18T01:09:57.581Z,29.6
2019-05-18T01:10:59.172Z,30.6
2019-05-18T01:12:01.037Z,29.5
2019-05-18T01:13:02.905Z,29.8
2019-05-18T01:14:04.777Z,30.4
2019-05-18T01:15:06.640Z,31.5
2019-05-18T01:16:08.229Z,30.7
2019-05-18T01:17:10.097Z,30.9
2019-05-18T01:18:11.967Z,30.5
2019-05-18T01:19:13.289Z,30.9
2019-05-18T01:20:15.152Z,31.6
2019-05-18T01:21:16.742Z,31
2019-05-18T01:22:18.631Z,31
2019-05-18T01:23:20.495Z,30.5
2019-05-18T01:24:22.360Z,31.4
2019-05-18T01:25:24.222Z,31.2
2019-05-18T01:26:26.086Z,32.5
2019-05-18T01:27:27.670Z,31.5
2019-05-18T01:28:29.552Z,32.6
2019-05-18T01:29:31.407Z,32.2
2019-05-18T01:30:32.731Z,31.6
2019-05-18T01:31:34.033Z,31.6
2019-05-18T01:32:35.619Z,32.2
2019-05-18T01:33:36.926Z,31.3
2019-05-18T01:34:38.514Z,31.8
2019-05-18T01:35:40.479Z,31.4
2019-05-18T01:36:42.342Z,31.8
2019-05-18T01:37:44.205Z,32.5
2019-05-18T01:38:46.070Z,31.8
2019-05-18T01:39:47.942Z,32.1
2019-05-18T01:40:49.814Z,31.4
2019-05-18T01:41:51.694Z,31.5
2019-05-18T01:42:53.550Z,31.5
2019-05-18T01:43:55.418Z,31.3
2019-05-18T01:44:57.281Z,32
2019-05-18T01:45:59.146Z,31.6
2019-05-18T01:47:01.013Z,32.4
2019-05-18T01:48:15.278Z,31.4
2019-05-18T01:49:17.135Z,32
2019-05-18T01:50:19.000Z,31.6
2019-05-18T01:51:20.890Z,31.4
2019-05-18T01:52:22.746Z,32.6
2019-05-18T01:53:24.618Z,31.9
2019-05-18T01:54:26.484Z,31.2
2019-05-18T01:55:28.344Z,31.1
2019-05-18T01:56:30.208Z,31.4
2019-05-18T01:57:32.076Z,31.2
2019-05-18T01:58:33.937Z,31.2
2019-05-18T01:59:35.802Z,31.6
2019-05-18T02:00:37.672Z,31.5
2019-05-18T02:01:39.532Z,30.9
2019-05-18T02:02:41.508Z,31.2
2019-05-18T02:03:43.385Z,30.8
2019-05-18T02:04:45.357Z,30.4
2019-05-18T02:05:46.941Z,29.6
2019-05-18T02:06:48.813Z,31
2019-05-18T02:07:50.812Z,30.7
2019-05-18T02:08:52.738Z,30.2
2019-05-18T02:09:54.605Z,31.5
2019-05-18T02:10:56.467Z,31.3
2019-05-18T02:11:58.331Z,31.5
2019-05-18T02:13:00.211Z,31
2019-05-18T02:14:01.793Z,31.9
2019-05-18T02:15:03.726Z,32.8
2019-05-18T02:16:05.589Z,31.1
2019-05-18T02:17:07.456Z,32.2
2019-05-18T02:18:09.325Z,32.3
2019-05-18T02:19:11.188Z,31.5
2019-05-18T02:20:12.777Z,31.1
2019-05-18T02:21:14.651Z,32.3
2019-05-18T02:22:16.505Z,31.3
2019-05-18T02:23:18.367Z,32.4
2019-05-18T02:24:20.251Z,32.1
2019-05-18T02:25:22.110Z,31.8
2019-05-18T02:26:23.987Z,32.3
2019-05-18T02:27:25.845Z,32.7
2019-05-18T02:28:27.430Z,32.7
2019-05-18T02:29:29.294Z,31.6
2019-05-18T02:30:30.881Z,30.4
2019-05-18T02:31:32.749Z,31.7
2019-05-18T02:32:34.692Z,30.3
2019-05-18T02:33:36.266Z,31.8
2019-05-18T02:34:38.132Z,30.9
2019-05-18T02:35:40.004Z,31.5
2019-05-18T02:36:41.863Z,31.5
2019-05-18T02:37:43.979Z,31.9
2019-05-18T02:38:45.836Z,30.8
2019-05-18T02:39:47.722Z,31.3
2019-05-18T02:40:49.585Z,30.5
2019-05-18T02:41:51.462Z,30.7
2019-05-18T02:42:53.322Z,30.6
2019-05-18T02:43:55.194Z,29.9
2019-05-18T02:44:56.795Z,30.7
2019-05-18T02:45:58.650Z,30.3
2019-05-18T02:47:00.519Z,30.5
2019-05-18T02:48:02.118Z,30.2
2019-05-18T02:49:03.447Z,31.1
2019-05-18T02:50:05.053Z,30.2
2019-05-18T02:51:12.049Z,31.3
2019-05-18T02:52:13.922Z,31.3
2019-05-18T02:53:15.786Z,31.9
2019-05-18T02:54:17.648Z,30.8
2019-05-18T02:55:19.526Z,31.4
2019-05-18T02:56:21.388Z,31.6
2019-05-18T02:57:22.688Z,31.3
2019-05-18T02:58:24.569Z,31.9
2019-05-18T02:59:26.146Z,32.4
2019-05-18T03:00:28.007Z,32.1
2019-05-18T03:01:29.874Z,32.4
2019-05-18T03:02:31.459Z,32.7
2019-05-18T03:03:33.336Z,33.6
2019-05-18T03:04:35.201Z,32.6
2019-05-18T03:05:37.068Z,32.7
2019-05-18T03:06:38.924Z,32
2019-05-18T03:07:40.790Z,31.5
2019-05-18T03:08:42.664Z,33
2019-05-18T03:09:44.261Z,32.6
2019-05-18T03:10:46.126Z,32
2019-05-18T03:11:48.027Z,31.6
2019-05-18T03:12:49.891Z,31.4
2019-05-18T03:13:51.755Z,31.6
2019-05-18T03:14:53.621Z,31.3
2019-05-18T03:15:55.485Z,31.4
2019-05-18T03:16:57.345Z,31.3
2019-05-18T03:17:59.210Z,32.2
2019-05-18T03:19:10.004Z,31.5
2019-05-18T03:20:11.868Z,31.3
2019-05-18T03:21:13.730Z,31.8
2019-05-18T03:22:15.324Z,30.9
2019-05-18T03:23:17.181Z,32.8
2019-05-18T03:24:19.049Z,31.8
2019-05-18T03:25:20.665Z,33.1
2019-05-18T03:26:22.256Z,32.7
2019-05-18T03:27:23.846Z,33
2019-05-18T03:28:25.721Z,32.5
2019-05-18T03:29:27.581Z,32.2
2019-05-18T03:30:29.160Z,32.8
2019-05-18T03:31:31.027Z,32.2
2019-05-18T03:32:33.038Z,32
2019-05-18T03:33:34.948Z,32.5
2019-05-18T03:34:36.823Z,32.4
2019-05-18T03:35:38.753Z,31.9
2019-05-18T03:36:40.620Z,32.2
2019-05-18T03:37:42.488Z,32.5
2019-05-18T03:38:44.354Z,32.9
2019-05-18T03:39:46.218Z,33.6
2019-05-18T03:40:48.084Z,33.8
2019-05-18T03:41:49.959Z,34.2
2019-05-18T03:42:51.822Z,34.5
2019-05-18T03:43:53.689Z,35
2019-05-18T03:44:55.560Z,34.9
2019-05-18T03:45:57.424Z,35.1
2019-05-18T03:46:59.029Z,34.7
2019-05-18T03:48:00.895Z,34.1
2019-05-18T03:49:02.759Z,33.3
2019-05-18T03:50:04.632Z,33.9
2019-05-18T03:51:06.261Z,33
2019-05-18T03:52:08.109Z,34.1
2019-05-18T03:53:09.686Z,33.7
2019-05-18T03:54:11.549Z,34
2019-05-18T03:55:13.138Z,34.7
2019-05-18T03:56:15.005Z,35.1
2019-05-18T03:57:16.869Z,35.4
2019-05-18T03:58:18.462Z,34.1
2019-05-18T03:59:20.318Z,34.8
2019-05-18T04:00:21.912Z,34.6
2019-05-18T04:01:23.777Z,34.6
2019-05-18T04:02:25.376Z,35.4
2019-05-18T04:03:27.238Z,34.8
2019-05-18T04:04:28.822Z,36.3
2019-05-18T04:05:30.401Z,35.4
2019-05-18T04:06:31.985Z,36
2019-05-18T04:07:33.561Z,35.8
2019-05-18T04:08:35.426Z,36
2019-05-18T04:09:37.287Z,35.7
2019-05-18T04:10:39.151Z,35.5
2019-05-18T04:11:41.015Z,35.4
2019-05-18T04:12:42.605Z,34.7
2019-05-18T04:13:44.480Z,35.1
2019-05-18T04:14:46.338Z,35.7
2019-05-18T04:15:48.216Z,34.5
2019-05-18T04:16:49.776Z,35.4
2019-05-18T04:17:51.643Z,34
2019-05-18T04:18:53.520Z,34.2
2019-05-18T04:19:55.380Z,35.1
2019-05-18T04:20:57.244Z,34.2
2019-05-18T04:21:59.110Z,33.7
2019-05-18T04:23:01.007Z,34.6
2019-05-18T04:24:02.874Z,34.3
2019-05-18T04:25:04.743Z,34.1
2019-05-18T04:26:06.614Z,33.5
2019-05-18T04:27:08.482Z,34.6
2019-05-18T04:28:09.821Z,35.9
2019-05-18T04:29:11.400Z,36.1
2019-05-18T04:30:13.269Z,36.2
2019-05-18T04:31:15.149Z,36.1
2019-05-18T04:32:17.007Z,35.6
2019-05-18T04:33:18.917Z,34.7
2019-05-18T04:34:20.763Z,34.3
2019-05-18T04:35:22.632Z,33.9
2019-05-18T04:36:24.234Z,33.7
2019-05-18T04:37:25.829Z,33.7
2019-05-18T04:38:27.690Z,32.7
2019-05-18T04:39:29.014Z,34.5
2019-05-18T04:40:30.318Z,32.9
2019-05-18T04:41:32.196Z,32.9
2019-05-18T04:42:34.062Z,33.3
2019-05-18T04:43:35.936Z,32.7
2019-05-18T04:44:37.799Z,32.5
2019-05-18T04:45:39.785Z,32.7
2019-05-18T04:46:41.688Z,33.3
2019-05-18T04:47:47.529Z,32.7
2019-05-18T04:48:50.512Z,32.4
2019-05-18T04:50:06.912Z,34
2019-05-18T04:51:08.494Z,34.8
2019-05-18T04:52:10.372Z,34.6
2019-05-18T04:53:12.242Z,35.1
2019-05-18T04:54:13.847Z,35.8
2019-05-18T04:55:15.713Z,36.3
2019-05-18T04:56:17.587Z,35.4
2019-05-18T04:57:19.456Z,35
2019-05-18T04:58:21.058Z,35.5
2019-05-18T04:59:22.929Z,35
2019-05-18T05:00:24.805Z,34.1
2019-05-18T05:01:26.690Z,34.8
2019-05-18T05:02:28.557Z,34.6
2019-05-18T05:03:29.859Z,33.6
2019-05-18T05:04:31.733Z,33
2019-05-18T05:05:33.605Z,33.4
2019-05-18T05:06:35.475Z,32.9
2019-05-18T05:07:37.345Z,33.3
2019-05-18T05:08:39.212Z,31.8
2019-05-18T05:09:41.082Z,31.7
2019-05-18T05:10:42.952Z,30.8
2019-05-18T05:11:44.823Z,31.2
2019-05-18T05:12:46.726Z,31.1
2019-05-18T05:13:48.615Z,30.5
2019-05-18T05:14:50.479Z,31.9
2019-05-18T05:15:52.349Z,31.6
2019-05-18T05:16:53.943Z,32.1
2019-05-18T05:17:55.814Z,31.9
2019-05-18T05:18:57.403Z,31.2
2019-05-18T05:19:59.267Z,31.6
2019-05-18T05:21:00.885Z,31.8
2019-05-18T05:22:02.758Z,32.1
2019-05-18T05:23:04.874Z,32.6
2019-05-18T05:24:06.775Z,32.8
2019-05-18T05:25:08.639Z,32.2
2019-05-18T05:26:10.513Z,31.9
2019-05-18T05:27:12.114Z,31.8
2019-05-18T05:28:13.975Z,31.9
2019-05-18T05:29:15.841Z,31.2
2019-05-18T05:30:17.711Z,31.3
2019-05-18T05:31:19.582Z,31.5
2019-05-18T05:32:21.449Z,33
2019-05-18T05:33:23.047Z,31.9
2019-05-18T05:34:24.954Z,33.2
2019-05-18T05:35:26.839Z,31.4
2019-05-18T05:36:28.695Z,30.8
2019-05-18T05:37:30.299Z,31.5
2019-05-18T05:38:32.176Z,31.3
2019-05-18T05:39:34.040Z,30.9
2019-05-18T05:40:35.911Z,32.5
2019-05-18T05:41:37.491Z,31.5
2019-05-18T05:42:39.071Z,31.5
2019-05-18T05:43:40.945Z,31.5
2019-05-18T05:44:42.542Z,31.4
2019-05-18T05:45:44.124Z,31.9
2019-05-18T05:46:46.013Z,30.5
2019-05-18T05:47:47.881Z,31
2019-05-18T05:48:49.478Z,31.1
2019-05-18T05:49:51.351Z,30
2019-05-18T05:50:53.238Z,30.4
2019-05-18T05:51:54.829Z,30.1
2019-05-18T05:52:56.700Z,29.9
2019-05-18T05:53:58.567Z,28.8
2019-05-18T05:55:00.439Z,28.9
2019-05-18T05:56:02.101Z,29.9
2019-05-18T05:57:03.743Z,29.4
2019-05-18T05:58:05.048Z,28.1
2019-05-18T05:59:07.337Z,29.4
2019-05-18T06:00:08.954Z,29.4
2019-05-18T06:01:10.822Z,29.7
2019-05-18T06:02:12.701Z,28.8
2019-05-18T06:03:14.570Z,28.8
2019-05-18T06:04:16.445Z,28.3
2019-05-18T06:05:18.312Z,28.8
2019-05-18T06:06:23.589Z,29.5
2019-05-18T06:07:25.467Z,29.3
2019-05-18T06:08:27.335Z,29
2019-05-18T06:09:28.934Z,28.6
2019-05-18T06:10:30.804Z,28.5
2019-05-18T06:11:32.670Z,27.5
2019-05-18T06:12:34.560Z,27.8
2019-05-18T06:13:36.411Z,29.1
2019-05-18T06:14:38.280Z,27.4
2019-05-18T06:15:40.148Z,27.6
2019-05-18T06:16:42.039Z,26.5
2019-05-18T06:17:43.893Z,26.6
2019-05-18T06:18:45.709Z,26.5
2019-05-18T06:19:47.617Z,26.7
2019-05-18T06:20:52.794Z,25.8
2019-05-18T06:21:54.387Z,25.5
2019-05-18T06:22:55.984Z,25.2
2019-05-18T06:23:57.851Z,25.3
2019-05-18T06:24:59.717Z,24.3
2019-05-18T06:26:01.356Z,24.1
2019-05-18T06:27:03.260Z,24.9
2019-05-18T06:28:04.857Z,25.6
2019-05-18T06:29:06.450Z,24.5
2019-05-18T06:30:08.437Z,24.8
2019-05-18T06:31:10.037Z,25.4
2019-05-18T06:32:11.647Z,24.6
2019-05-18T06:33:13.524Z,24.4
2019-05-18T06:34:15.395Z,24.2
2019-05-18T06:35:17.271Z,24
2019-05-18T06:36:19.153Z,23.3
2019-05-18T06:37:21.031Z,23.1
2019-05-18T06:38:22.905Z,23.6
2019-05-18T06:39:24.777Z,23.5
2019-05-18T06:40:26.660Z,22.8
2019-05-18T06:41:28.254Z,23.3
2019-05-18T06:42:30.135Z,23.5
2019-05-18T06:43:32.026Z,23.6
2019-05-18T06:44:33.627Z,23
2019-05-18T06:45:35.504Z,23.2
2019-05-18T06:46:37.376Z,23.8
2019-05-18T06:47:39.251Z,22.8
2019-05-18T06:48:41.126Z,23.1
2019-05-18T06:49:43.014Z,22.3
2019-05-18T06:50:44.876Z,22.8
2019-05-18T06:51:46.466Z,22.4
2019-05-18T06:52:48.376Z,22.1
2019-05-18T06:53:50.283Z,24
2019-05-18T06:54:52.156Z,22.8
2019-05-18T06:55:54.026Z,23.5
2019-05-18T06:56:55.898Z,22
2019-05-18T06:57:57.769Z,21.5
2019-05-18T06:58:59.638Z,21.9
2019-05-18T07:00:01.530Z,21.9
2019-05-18T07:01:03.386Z,21.7
2019-05-18T07:02:05.259Z,22.1
2019-05-18T07:03:06.860Z,20.8
2019-05-18T07:04:08.731Z,22.3
2019-05-18T07:05:10.612Z,21.4
2019-05-18T07:06:11.921Z,21
2019-05-18T07:07:13.799Z,21.7
2019-05-18T07:08:15.397Z,22.2
2019-05-18T07:09:17.272Z,21.7
2019-05-18T07:10:19.152Z,22.7
2019-05-18T07:11:21.208Z,22.2
2019-05-18T07:12:23.091Z,22.3
2019-05-18T07:13:25.014Z,21.6
2019-05-18T07:14:27.259Z,21.1
2019-05-18T07:15:28.884Z,20.6
2019-05-18T07:16:30.764Z,21.7
2019-05-18T07:17:35.538Z,20.6
2019-05-18T07:18:37.133Z,20.5
2019-05-18T07:19:38.722Z,20.5
2019-05-18T07:20:40.598Z,19.9
2019-05-18T07:21:42.476Z,18.9
2019-05-18T07:22:44.072Z,18.4
2019-05-18T07:23:46.155Z,18.6
2019-05-18T07:24:48.095Z,19.2
2019-05-18T07:25:49.948Z,19.3
2019-05-18T07:26:51.826Z,20
2019-05-18T07:27:53.698Z,19.6
2019-05-18T07:28:55.572Z,19.2
2019-05-18T07:29:57.457Z,18.8
2019-05-18T07:30:59.334Z,18.9
2019-05-18T07:32:01.458Z,19.8
2019-05-18T07:33:03.333Z,18.9
2019-05-18T07:34:05.211Z,18.7
2019-05-18T07:35:07.085Z,19.5
2019-05-18T07:36:08.961Z,19.1
2019-05-18T07:37:10.833Z,19.3
2019-05-18T07:38:12.710Z,18.8
2019-05-18T07:39:14.583Z,17.8
2019-05-18T07:40:16.458Z,18.5
2019-05-18T07:41:18.326Z,19
2019-05-18T07:42:20.194Z,18.1
2019-05-18T07:43:21.787Z,17.1
2019-05-18T07:44:23.658Z,16.4
2019-05-18T07:45:25.531Z,16.6
2019-05-18T07:46:27.404Z,16.2
2019-05-18T07:47:29.280Z,16.9
2019-05-18T07:48:30.880Z,17.1
2019-05-18T07:49:31.911Z,16
2019-05-18T07:50:33.781Z,16.3
2019-05-18T07:51:38.314Z,17
2019-05-18T07:52:40.208Z,16.9
2019-05-18T07:53:42.087Z,17.1
2019-05-18T07:54:43.960Z,16.5
2019-05-18T07:55:45.837Z,15.8
2019-05-18T07:56:47.713Z,14.9
2019-05-18T07:57:49.589Z,14.9
2019-05-18T07:58:51.175Z,14.9
2019-05-18T07:59:52.779Z,15.3
2019-05-18T08:00:54.086Z,15.7
2019-05-18T08:01:55.971Z,16
2019-05-18T08:02:57.554Z,16
2019-05-18T08:03:59.424Z,15.4
2019-05-18T08:05:01.300Z,15.4
2019-05-18T08:06:03.326Z,14.9
2019-05-18T08:07:05.201Z,14.9
2019-05-18T08:08:06.799Z,15.1
2019-05-18T08:09:08.114Z,15.3
2019-05-18T08:10:10.013Z,14.7
2019-05-18T08:11:11.590Z,16.6
2019-05-18T08:12:13.462Z,16.5
2019-05-18T08:13:15.334Z,17.1
2019-05-18T08:14:16.968Z,16.7
2019-05-18T08:15:18.569Z,16.1
2019-05-18T08:16:20.447Z,15.8
2019-05-18T08:17:21.753Z,15.4
2019-05-18T08:18:23.624Z,16
2019-05-18T08:19:25.515Z,15.2
2019-05-18T08:20:27.385Z,15.9
2019-05-18T08:21:29.259Z,15.6
2019-05-18T08:22:31.133Z,14.8
2019-05-18T08:23:33.026Z,15.7
2019-05-18T08:24:34.896Z,15.2
2019-05-18T08:25:36.769Z,15.1
2019-05-18T08:26:38.640Z,15.5
2019-05-18T08:27:40.512Z,15.7
2019-05-18T08:28:42.384Z,15.3
2019-05-18T08:29:44.255Z,15.9
2019-05-18T08:30:46.127Z,16.3
2019-05-18T08:31:48.000Z,16.3
2019-05-18T08:32:49.866Z,16.4
2019-05-18T08:33:51.790Z,16.4
2019-05-18T08:34:53.388Z,15.8
2019-05-18T08:35:55.257Z,15.4
2019-05-18T08:36:57.130Z,15.1
2019-05-18T08:37:59.103Z,15.5
2019-05-18T08:39:00.950Z,15.2
2019-05-18T08:40:02.855Z,15.1
2019-05-18T08:41:04.750Z,14.2
2019-05-18T08:42:06.628Z,14.3
2019-05-18T08:43:08.494Z,14.4
2019-05-18T08:44:10.097Z,15
2019-05-18T08:45:11.696Z,15
2019-05-18T08:46:13.568Z,14.2
2019-05-18T08:47:15.442Z,14.1
2019-05-18T08:48:17.332Z,13.3
2019-05-18T08:49:19.205Z,13.5
2019-05-18T08:50:20.798Z,13.1
2019-05-18T08:51:22.675Z,12.7
2019-05-18T08:52:24.550Z,13.3
2019-05-18T08:53:26.429Z,13.1
2019-05-18T08:54:28.299Z,12.4
2019-05-18T08:55:30.173Z,12.1
2019-05-18T08:56:32.067Z,12.2
2019-05-18T08:57:33.943Z,11.2
2019-05-18T08:58:35.818Z,10.8
2019-05-18T08:59:40.901Z,11.2
2019-05-18T09:00:42.518Z,10.8
2019-05-18T09:01:44.403Z,9.2
2019-05-18T09:02:46.271Z,9.4
2019-05-18T09:03:47.865Z,8.8
2019-05-18T09:04:49.729Z,8.4
2019-05-18T09:05:51.613Z,8.6
2019-05-18T09:06:53.222Z,9.4
2019-05-18T09:07:54.528Z,10.1
2019-05-18T09:08:56.399Z,9.4
2019-05-18T09:09:57.994Z,8.5
2019-05-18T09:10:59.864Z,7.7
2019-05-18T09:12:01.747Z,8.2
2019-05-18T09:13:03.724Z,7.6
2019-05-18T09:14:05.595Z,7.9
2019-05-18T09:15:07.470Z,7.8
2019-05-18T09:16:09.339Z,7.7
2019-05-18T09:17:10.930Z,8.3
2019-05-18T09:18:12.526Z,9.1
2019-05-18T09:19:14.398Z,9.2
2019-05-18T09:20:16.321Z,9.3
2019-05-18T09:21:17.915Z,8.9
2019-05-18T09:22:24.349Z,9
2019-05-18T09:23:26.215Z,8.9
2019-05-18T09:24:27.531Z,8.8
2019-05-18T09:25:29.402Z,8.1
2019-05-18T09:26:31.301Z,7.9
2019-05-18T09:27:33.183Z,7.3
2019-05-18T09:28:35.259Z,6.9
2019-05-18T09:29:36.838Z,6.9
2019-05-18T09:30:41.734Z,6.5
2019-05-18T09:31:43.603Z,6.3
2019-05-18T09:32:45.475Z,6.6
2019-05-18T09:33:47.346Z,6.2
2019-05-18T09:34:49.212Z,7
2019-05-18T09:35:51.084Z,7.1
2019-05-18T09:36:52.955Z,6.9
2019-05-18T09:37:54.835Z,7.2
2019-05-18T09:38:56.702Z,6.9
2019-05-18T09:39:58.039Z,6.6
2019-05-18T09:40:59.633Z,6.7
2019-05-18T09:42:01.228Z,6.7
2019-05-18T09:43:02.833Z,6.7
2019-05-18T09:44:04.425Z,7.2
2019-05-18T09:45:06.298Z,6.7
2019-05-18T09:46:08.172Z,6.6
2019-05-18T09:47:10.038Z,6.1
2019-05-18T09:48:11.910Z,6.9
2019-05-18T09:49:13.781Z,6.8
2019-05-18T09:50:15.664Z,7.1
2019-05-18T09:51:17.554Z,8
2019-05-18T09:52:19.425Z,8.3
2019-05-18T09:53:21.294Z,8
2019-05-18T09:54:23.160Z,7.9
2019-05-18T09:55:24.800Z,8
2019-05-18T09:56:26.678Z,7.3
2019-05-18T09:57:28.550Z,7.4
2019-05-18T09:58:30.424Z,7.7
2019-05-18T09:59:32.311Z,8.2
2019-05-18T10:00:39.811Z,7.9
2019-05-18T10:01:41.945Z,8.3
2019-05-18T10:02:43.840Z,8.4
2019-05-18T10:03:45.430Z,7.6
2019-05-18T10:04:47.300Z,7.2
2019-05-18T10:05:49.182Z,8
2019-05-18T10:06:50.484Z,8.2
2019-05-18T10:07:52.355Z,8.4
2019-05-18T10:08:54.240Z,8.8
2019-05-18T10:09:56.108Z,8.5
2019-05-18T10:10:57.980Z,8.1
2019-05-18T10:11:59.846Z,7.7
2019-05-18T10:13:01.720Z,7.5
2019-05-18T10:14:03.610Z,8.1
2019-05-18T10:15:05.476Z,8.4
2019-05-18T10:16:07.348Z,8.5
2019-05-18T10:17:08.394Z,8.7
2019-05-18T10:18:09.774Z,9.2
2019-05-18T10:19:11.656Z,9
2019-05-18T10:20:13.523Z,9.4
2019-05-18T10:21:15.393Z,9.2
2019-05-18T10:22:17.304Z,9.3
2019-05-18T10:23:19.148Z,8.6
2019-05-18T10:24:21.015Z,9.2
2019-05-18T10:25:22.884Z,8.5
2019-05-18T10:26:24.754Z,6.8
2019-05-18T10:27:26.625Z,6.9
2019-05-18T10:28:28.495Z,7.8
2019-05-18T10:29:30.363Z,7.6
2019-05-18T10:30:31.969Z,7.8
2019-05-18T10:31:33.839Z,8.2
2019-05-18T10:32:35.712Z,7.4
2019-05-18T10:33:37.583Z,7.5
2019-05-18T10:34:39.454Z,7.7
2019-05-18T10:35:41.331Z,8.5
2019-05-18T10:36:43.235Z,8.2
2019-05-18T10:37:44.538Z,7.6
2019-05-18T10:38:45.866Z,7.7
2019-05-18T10:39:47.450Z,7.4
2019-05-18T10:40:49.321Z,7.8
2019-05-18T10:41:51.190Z,8.2
2019-05-18T10:42:53.062Z,8.6
2019-05-18T10:43:54.933Z,7.9
2019-05-18T10:44:56.805Z,7.3
2019-05-18T10:45:58.676Z,6.9
2019-05-18T10:47:00.549Z,7.1
2019-05-18T10:48:02.607Z,7.3
2019-05-18T10:49:04.663Z,7.6
2019-05-18T10:50:06.534Z,7.8
2019-05-18T10:51:08.426Z,8.2
2019-05-18T10:52:10.297Z,7.5
2019-05-18T10:53:11.900Z,8.1
2019-05-18T10:54:29.251Z,7.1
2019-05-18T10:55:31.180Z,7.6
2019-05-18T10:56:32.810Z,7.5
2019-05-18T10:57:34.683Z,7
2019-05-18T10:58:36.560Z,6.8
2019-05-18T10:59:38.429Z,7.4
2019-05-18T11:00:39.761Z,7.1
2019-05-18T11:01:44.819Z,8.6
2019-05-18T11:02:46.688Z,9.3
2019-05-18T11:03:48.575Z,8.9
2019-05-18T11:04:50.453Z,8.1
2019-05-18T11:05:52.041Z,7.8
2019-05-18T11:06:53.660Z,8.2
2019-05-18T11:07:55.530Z,7.4
2019-05-18T11:08:57.404Z,6.5
2019-05-18T11:09:59.275Z,6.7
2019-05-18T11:11:01.144Z,7
2019-05-18T11:12:03.031Z,6.4
2019-05-18T11:13:04.894Z,6.8
2019-05-18T11:14:06.780Z,7.2
2019-05-18T11:15:08.385Z,7.7
2019-05-18T11:16:09.690Z,7.1
2019-05-18T11:17:11.566Z,6.4
2019-05-18T11:18:13.450Z,7
2019-05-18T11:19:15.332Z,6.6
2019-05-18T11:20:17.204Z,6.8
2019-05-18T11:21:19.076Z,6.6
2019-05-18T11:22:20.404Z,7
2019-05-18T11:23:22.012Z,6.6
2019-05-18T11:24:23.888Z,6.3
2019-05-18T11:25:25.490Z,5.7
2019-05-18T11:26:27.380Z,5.6
2019-05-18T11:27:29.232Z,6.8
2019-05-18T11:28:31.115Z,7.4
2019-05-18T11:29:32.729Z,7.1
2019-05-18T11:30:34.601Z,6.8
2019-05-18T11:31:36.481Z,6.8
2019-05-18T11:32:38.358Z,6.4
2019-05-18T11:33:39.680Z,6.5
2019-05-18T11:34:40.986Z,6.3
2019-05-18T11:35:42.856Z,6.4
2019-05-18T11:36:44.722Z,6.2
2019-05-18T11:37:46.597Z,6.9
2019-05-18T11:38:48.190Z,6.3
2019-05-18T11:39:49.781Z,6.1
2019-05-18T11:40:51.652Z,5.9
2019-05-18T11:41:53.245Z,5.6
2019-05-18T11:42:55.115Z,6.1
2019-05-18T11:43:56.989Z,6.3
2019-05-18T11:44:58.866Z,6.3
2019-05-18T11:46:00.458Z,5.8
2019-05-18T11:47:02.336Z,6.2
2019-05-18T11:48:04.223Z,5.5
2019-05-18T11:49:05.946Z,5.6
2019-05-18T11:50:07.543Z,5.6
2019-05-18T11:51:09.429Z,5.6
2019-05-18T11:52:11.029Z,4.9
2019-05-18T11:53:12.620Z,5.4
2019-05-18T11:54:14.206Z,4.9
2019-05-18T11:55:16.098Z,5
2019-05-18T11:56:17.690Z,4.9
2019-05-18T11:57:19.566Z,5.4
2019-05-18T11:58:21.440Z,5.5
2019-05-18T11:59:23.314Z,5.3
2019-05-18T12:00:24.907Z,5.1
2019-05-18T12:01:26.489Z,4.9
2019-05-18T12:02:28.083Z,4.9
2019-05-18T12:03:29.959Z,5.3
2019-05-18T12:04:31.825Z,5.2
2019-05-18T12:05:33.698Z,4.6
2019-05-18T12:06:35.315Z,4.7
2019-05-18T12:07:36.890Z,4.3
2019-05-18T12:08:38.767Z,5
2019-05-18T12:09:40.639Z,5.2
2019-05-18T12:10:42.538Z,5.7
2019-05-18T12:11:44.410Z,6.2
2019-05-18T12:12:45.996Z,5.8
2019-05-18T12:13:47.868Z,6.3
2019-05-18T12:14:49.755Z,5.6
2019-05-18T12:15:51.641Z,5.7
2019-05-18T12:16:53.511Z,6
2019-05-18T12:17:55.383Z,5.8
2019-05-18T12:18:58.709Z,5.3
2019-05-18T12:20:00.583Z,5.3
2019-05-18T12:21:02.177Z,5.2
2019-05-18T12:22:04.067Z,6
2019-05-18T12:23:09.601Z,5.7
2019-05-18T12:24:16.499Z,6
2019-05-18T12:25:18.372Z,6.2
2019-05-18T12:26:20.238Z,5.7
2019-05-18T12:27:22.109Z,5.7
2019-05-18T12:28:24.019Z,5.1
2019-05-18T12:29:25.939Z,5.2
2019-05-18T12:30:27.791Z,4.6
2019-05-18T12:31:29.664Z,5
2019-05-18T12:32:31.259Z,5.3
2019-05-18T12:33:33.128Z,5
2019-05-18T12:34:35.004Z,5
2019-05-18T12:35:36.877Z,4.9
2019-05-18T12:36:38.755Z,4.6
2019-05-18T12:37:40.617Z,5.1
2019-05-18T12:38:42.215Z,4.8
2019-05-18T12:39:44.089Z,5
2019-05-18T12:40:46.267Z,5.1
2019-05-18T12:41:48.138Z,5.1
2019-05-18T12:42:50.034Z,4.8
2019-05-18T12:43:51.612Z,4.2
2019-05-18T12:44:53.480Z,4.6
2019-05-18T12:45:55.352Z,4.6
2019-05-18T12:46:57.267Z,3.9
2019-05-18T12:47:59.145Z,4.3
2019-05-18T12:49:01.020Z,4.1
2019-05-18T12:50:02.890Z,4
2019-05-18T12:51:04.766Z,4.4
2019-05-18T12:52:06.359Z,4.2
2019-05-18T12:53:08.238Z,3.9
2019-05-18T12:54:10.112Z,3.9
2019-05-18T12:55:11.712Z,3.7
2019-05-18T12:56:13.583Z,3.6
2019-05-18T12:57:15.462Z,4.3
2019-05-18T12:58:17.445Z,3.8
2019-05-18T12:59:19.307Z,3.7
2019-05-18T13:00:21.267Z,3.7
2019-05-18T13:01:22.892Z,3.7
2019-05-18T13:02:24.496Z,3.6
2019-05-18T13:03:26.369Z,3.8
2019-05-18T13:04:28.061Z,3.6
2019-05-18T13:05:29.963Z,3.6
2019-05-18T13:06:31.557Z,3.2
2019-05-18T13:07:33.441Z,2.9
2019-05-18T13:08:35.325Z,2.8
2019-05-18T13:09:37.199Z,3.1
2019-05-18T13:10:39.075Z,3.2
2019-05-18T13:11:40.950Z,3.1
2019-05-18T13:12:42.824Z,2.8
2019-05-18T13:13:44.697Z,3.3
2019-05-18T13:14:46.609Z,3.3
2019-05-18T13:15:48.483Z,3.4
2019-05-18T13:16:50.078Z,3
2019-05-18T13:17:51.953Z,3.2
2019-05-18T13:18:53.824Z,3
2019-05-18T13:19:55.710Z,3.4
2019-05-18T13:20:57.290Z,3.5
2019-05-18T13:21:59.165Z,3.1
2019-05-18T13:23:01.073Z,3.5
2019-05-18T13:24:02.943Z,3.7
2019-05-18T13:25:04.816Z,3.1
2019-05-18T13:26:06.700Z,2.9
2019-05-18T13:27:08.617Z,2.9
2019-05-18T13:28:10.520Z,2.7
2019-05-18T13:29:12.395Z,2.6
2019-05-18T13:30:14.294Z,2.6
2019-05-18T13:31:15.880Z,2.6
2019-05-18T13:32:17.754Z,3
2019-05-18T13:33:19.727Z,3.1
2019-05-18T13:34:21.598Z,3.2
2019-05-18T13:35:23.470Z,3.1
2019-05-18T13:36:25.349Z,3.3
2019-05-18T13:37:26.946Z,3.6
2019-05-18T13:38:28.276Z,3.5
2019-05-18T13:39:29.875Z,3.3
2019-05-18T13:40:31.745Z,3.6
2019-05-18T13:41:33.647Z,3.5
2019-05-18T13:42:35.511Z,3.3
2019-05-18T13:43:37.406Z,3.8
2019-05-18T13:44:39.345Z,3.6
2019-05-18T13:45:41.036Z,3.3
2019-05-18T13:46:42.917Z,3.3
2019-05-18T13:47:44.799Z,3.1
2019-05-18T13:48:46.684Z,2.9
2019-05-18T13:49:48.584Z,3
2019-05-18T13:50:50.463Z,2.6
2019-05-18T13:51:52.435Z,2.9
2019-05-18T13:52:54.290Z,3.1
2019-05-18T13:53:56.211Z,3.4
2019-05-18T13:55:05.858Z,3.4
2019-05-18T13:56:07.165Z,3.1
2019-05-18T13:57:09.039Z,3.1
2019-05-18T13:58:10.915Z,2.9
2019-05-18T13:59:12.790Z,2.9